Airport View

Enter AWOS ICAO identifier for current METAR.

ex. KFNL

KSSC 181056Z AUTO 07006KT 10SM OVC130 04/M04 A3052 RMK AO2 SLP338 T00361041 $

18 Jan 2020 11:24

Other Area AWOS: KSMS - KMMT - KCDN - KCUB

TAF AMD KSSC 172337Z 1723/1822 06006KT 9999 OVC150 QNH3060INS BECMG 1803/1804 07007KT 9999 BKN120 OVC200 QNH3055INS BECMG 1814/1815 14008KT 9999 BKN035 OVC100 QNH3045INS TX11/1723Z TN01/1810Z LAST NO AMDS AFT 1800Z NEXT 2108Z